createdAt,value
2022-09-13T00:00:43.340Z,18
2022-09-13T00:03:14.961Z,24
2022-09-13T00:05:56.874Z,18
2022-09-13T00:08:32.007Z,22
2022-09-13T00:11:07.883Z,20
2022-09-13T00:13:40.179Z,17
2022-09-13T00:16:14.712Z,17
2022-09-13T00:18:49.509Z,19
2022-09-13T00:21:21.430Z,16
2022-09-13T00:23:54.019Z,16
2022-09-13T00:26:27.741Z,17
2022-09-13T00:29:02.428Z,20
2022-09-13T00:31:56.767Z,19
2022-09-13T00:34:27.515Z,21
2022-09-13T00:36:59.357Z,20
2022-09-13T00:39:31.985Z,21
2022-09-13T00:42:05.191Z,24
2022-09-13T00:44:39.172Z,19
2022-09-13T00:47:11.616Z,19
2022-09-13T00:49:44.301Z,16
2022-09-13T00:52:16.617Z,16
2022-09-13T00:54:49.402Z,20
2022-09-13T00:57:22.729Z,18
2022-09-13T00:59:55.319Z,19
2022-09-13T01:02:27.822Z,17
2022-09-13T01:05:00.040Z,18
2022-09-13T01:07:33.712Z,21
2022-09-13T01:10:06.073Z,20
2022-09-13T01:12:38.658Z,16
2022-09-13T01:15:11.387Z,20
2022-09-13T01:17:43.952Z,20
2022-09-13T01:20:16.382Z,18
2022-09-13T01:22:49.728Z,21
2022-09-13T01:25:22.611Z,24
2022-09-13T01:27:56.095Z,15
2022-09-13T01:30:30.103Z,16
2022-09-13T01:33:00.847Z,20
2022-09-13T01:35:35.221Z,14
2022-09-13T01:38:07.348Z,20
2022-09-13T01:40:40.003Z,16
2022-09-13T01:43:14.140Z,23
2022-09-13T01:45:47.098Z,17
2022-09-13T01:48:19.439Z,20
2022-09-13T01:50:52.116Z,19
2022-09-13T01:53:25.236Z,19
2022-09-13T01:56:02.411Z,21
2022-09-13T01:58:33.379Z,23
2022-09-13T02:01:06.547Z,17
2022-09-13T02:03:38.914Z,20
2022-09-13T02:06:12.342Z,16
2022-09-13T02:08:45.459Z,16
2022-09-13T02:11:18.124Z,19
2022-09-13T02:13:51.060Z,16
2022-09-13T02:16:26.059Z,19
2022-09-13T02:18:58.851Z,21
2022-09-13T02:21:31.477Z,21
2022-09-13T02:24:04.221Z,17
2022-09-13T02:26:36.962Z,13
2022-09-13T02:29:11.873Z,17
2022-09-13T02:31:45.916Z,16
2022-09-13T02:34:21.298Z,19
2022-09-13T02:36:53.471Z,16
2022-09-13T02:39:26.585Z,18
2022-09-13T02:41:58.877Z,20
2022-09-13T02:44:31.547Z,16
2022-09-13T02:47:05.639Z,15
2022-09-13T02:49:40.779Z,20
2022-09-13T02:52:12.426Z,17
2022-09-13T02:54:45.118Z,20
2022-09-13T02:57:17.539Z,21
2022-09-13T02:59:49.946Z,17
2022-09-13T03:02:23.097Z,16
2022-09-13T03:04:55.299Z,18
2022-09-13T03:07:27.530Z,16
2022-09-13T03:10:00.217Z,16
2022-09-13T03:12:32.127Z,17
2022-09-13T03:15:05.402Z,18
2022-09-13T03:17:38.080Z,17
2022-09-13T03:20:11.371Z,23
2022-09-13T03:22:45.419Z,19
2022-09-13T03:25:18.209Z,20
2022-09-13T03:27:50.553Z,17
2022-09-13T03:30:23.415Z,19
2022-09-13T03:32:55.649Z,21
2022-09-13T03:35:27.927Z,17
2022-09-13T03:38:02.846Z,15
2022-09-13T03:40:34.277Z,19
2022-09-13T03:43:06.798Z,24
2022-09-13T03:45:39.314Z,24
2022-09-13T03:48:11.330Z,19
2022-09-13T03:50:43.674Z,16
2022-09-13T03:53:16.663Z,19
2022-09-13T03:55:47.437Z,22
2022-09-13T03:58:19.014Z,22
2022-09-13T04:00:51.185Z,23
2022-09-13T04:03:23.881Z,20
2022-09-13T04:05:56.679Z,20
2022-09-13T04:08:28.868Z,17
2022-09-13T04:11:01.757Z,24
2022-09-13T04:13:33.456Z,21
2022-09-13T04:16:07.306Z,20
2022-09-13T04:18:39.396Z,24
2022-09-13T04:21:11.383Z,21
2022-09-13T04:23:44.620Z,21
2022-09-13T04:26:15.167Z,22
2022-09-13T04:28:46.932Z,19
2022-09-13T04:31:19.567Z,16
2022-09-13T04:33:51.616Z,27
2022-09-13T04:36:23.659Z,21
2022-09-13T04:38:57.612Z,17
2022-09-13T04:41:29.823Z,21
2022-09-13T04:44:05.609Z,24
2022-09-13T04:46:37.007Z,23
2022-09-13T04:49:08.922Z,24
2022-09-13T04:51:41.147Z,23
2022-09-13T04:54:16.925Z,29
2022-09-13T04:56:47.599Z,21
2022-09-13T04:59:19.231Z,25
2022-09-13T05:01:51.666Z,26
2022-09-13T05:04:24.082Z,17
2022-09-13T05:06:56.394Z,31
2022-09-13T05:09:28.328Z,25
2022-09-13T05:12:00.957Z,28
2022-09-13T05:14:32.263Z,28
2022-09-13T05:17:05.986Z,27
2022-09-13T05:19:40.527Z,25
2022-09-13T05:22:15.687Z,20
2022-09-13T05:24:48.478Z,25
2022-09-13T05:27:20.566Z,36
2022-09-13T05:29:53.023Z,39
2022-09-13T05:32:25.470Z,44
2022-09-13T05:34:57.825Z,47
2022-09-13T05:37:30.395Z,40
2022-09-13T05:40:13.474Z,52
2022-09-13T05:42:44.760Z,45
2022-09-13T05:45:18.429Z,40
2022-09-13T05:47:51.393Z,43
2022-09-13T05:50:59.029Z,34
2022-09-13T05:53:29.299Z,33
2022-09-13T05:56:03.186Z,27
2022-09-13T05:58:38.756Z,36
2022-09-13T06:01:09.798Z,32
2022-09-13T06:03:42.579Z,28
2022-09-13T06:06:15.890Z,27
2022-09-13T06:08:50.587Z,24
2022-09-13T06:11:22.791Z,23
2022-09-13T06:13:58.744Z,23
2022-09-13T06:16:31.271Z,25
2022-09-13T06:19:06.976Z,24
2022-09-13T06:21:41.928Z,27
2022-09-13T06:24:14.443Z,23
2022-09-13T06:26:45.597Z,28
2022-09-13T06:29:16.090Z,24
2022-09-13T06:31:50.217Z,27
2022-09-13T06:34:31.516Z,22
2022-09-13T06:37:02.765Z,27
2022-09-13T06:39:37.289Z,19
2022-09-13T06:42:09.699Z,20
2022-09-13T06:44:41.783Z,27
2022-09-13T06:47:14.318Z,21
2022-09-13T06:49:48.460Z,20
2022-09-13T06:52:21.222Z,19
2022-09-13T06:54:55.287Z,23
2022-09-13T06:57:29.644Z,21
2022-09-13T07:00:03.117Z,20
2022-09-13T07:02:35.850Z,20
2022-09-13T07:05:09.384Z,24
2022-09-13T07:07:41.978Z,20
2022-09-13T07:10:13.186Z,20
2022-09-13T07:12:45.986Z,21
2022-09-13T07:15:18.219Z,27
2022-09-13T07:17:50.468Z,24
2022-09-13T07:20:22.193Z,23
2022-09-13T07:22:54.597Z,48
2022-09-13T07:25:26.885Z,28
2022-09-13T07:27:59.079Z,28
2022-09-13T07:30:33.944Z,20
2022-09-13T07:33:03.945Z,29
2022-09-13T07:35:36.468Z,20
2022-09-13T07:38:08.191Z,17
2022-09-13T07:40:40.753Z,20
2022-09-13T07:43:13.256Z,19
2022-09-13T07:45:45.904Z,20
2022-09-13T07:48:20.124Z,21
2022-09-13T07:50:52.832Z,16
2022-09-13T07:53:27.886Z,28
2022-09-13T07:56:02.820Z,19
2022-09-13T07:58:36.820Z,24
2022-09-13T08:01:09.500Z,20
2022-09-13T08:03:42.274Z,24
2022-09-13T08:06:19.257Z,14
2022-09-13T08:08:52.664Z,19
2022-09-13T08:11:26.171Z,16
2022-09-13T08:13:56.907Z,19
2022-09-13T08:16:29.629Z,15
2022-09-13T08:19:03.179Z,19
2022-09-13T08:21:36.144Z,17
2022-09-13T08:24:09.054Z,24
2022-09-13T08:26:45.503Z,15
2022-09-13T08:29:15.469Z,20
2022-09-13T08:31:47.384Z,23
2022-09-13T08:34:19.246Z,17
2022-09-13T08:36:51.170Z,18
2022-09-13T08:39:22.382Z,17
2022-09-13T08:41:54.852Z,19
2022-09-13T08:44:27.524Z,20
2022-09-13T08:47:01.562Z,20
2022-09-13T08:49:41.935Z,15
2022-09-13T08:52:13.145Z,13
2022-09-13T08:54:45.682Z,13
2022-09-13T08:57:16.390Z,21
2022-09-13T08:59:51.931Z,20
2022-09-13T09:02:24.177Z,17
2022-09-13T09:04:56.446Z,19
2022-09-13T09:07:28.787Z,15
2022-09-13T09:10:00.730Z,19
2022-09-13T09:12:32.628Z,16
2022-09-13T09:15:04.919Z,12
2022-09-13T09:17:37.230Z,15
2022-09-13T09:20:10.159Z,15
2022-09-13T09:22:42.663Z,13
2022-09-13T09:25:15.465Z,14
2022-09-13T09:27:48.074Z,16
2022-09-13T09:30:20.112Z,21
2022-09-13T09:32:52.087Z,15
2022-09-13T09:35:26.090Z,15
2022-09-13T09:37:58.488Z,13
2022-09-13T09:40:32.498Z,16
2022-09-13T09:43:06.921Z,13
2022-09-13T09:45:39.394Z,13
2022-09-13T09:48:11.459Z,12
2022-09-13T09:50:43.868Z,17
2022-09-13T09:53:15.943Z,12
2022-09-13T09:55:49.351Z,12
2022-09-13T09:58:22.655Z,14
2022-09-13T10:00:56.434Z,8
2022-09-13T10:03:34.267Z,12
2022-09-13T10:06:10.161Z,15
2022-09-13T10:08:40.396Z,21
2022-09-13T10:11:19.056Z,16
2022-09-13T10:13:50.862Z,12
2022-09-13T10:16:22.778Z,12
2022-09-13T10:18:55.875Z,16
2022-09-13T10:21:28.818Z,12
2022-09-13T10:24:05.892Z,14
2022-09-13T10:26:37.524Z,16
2022-09-13T10:29:09.523Z,11
2022-09-13T10:31:42.079Z,12
2022-09-13T10:34:14.306Z,8
2022-09-13T10:36:54.114Z,9
2022-09-13T10:39:24.784Z,11
2022-09-13T10:41:57.489Z,10
2022-09-13T10:44:29.617Z,8
2022-09-13T10:47:01.519Z,8
2022-09-13T10:49:36.286Z,16
2022-09-13T10:52:14.756Z,9
2022-09-13T10:54:45.332Z,67
2022-09-13T10:57:25.303Z,21
2022-09-13T10:59:58.267Z,17
2022-09-13T11:02:31.119Z,16
2022-09-13T11:05:06.049Z,12
2022-09-13T11:07:43.190Z,13
2022-09-13T11:10:17.261Z,11
2022-09-13T11:12:49.572Z,13
2022-09-13T11:15:21.394Z,17
2022-09-13T11:17:53.866Z,16
2022-09-13T11:20:25.944Z,11
2022-09-13T11:22:58.924Z,11
2022-09-13T11:25:56.209Z,13
2022-09-13T11:28:27.458Z,9
2022-09-13T11:30:59.988Z,9
2022-09-13T11:33:36.220Z,10
2022-09-13T11:36:11.255Z,8
2022-09-13T11:38:44.728Z,11
2022-09-13T11:41:15.707Z,11
2022-09-13T11:43:50.866Z,8
2022-09-13T11:46:23.299Z,12
2022-09-13T11:48:56.014Z,7
2022-09-13T11:51:32.349Z,9
2022-09-13T11:54:07.482Z,14
2022-09-13T11:56:40.328Z,8
2022-09-13T11:59:16.226Z,8
2022-09-13T12:01:53.103Z,4
2022-09-13T12:04:37.723Z,7
2022-09-13T12:07:11.384Z,7
2022-09-13T12:09:44.521Z,7
2022-09-13T12:12:16.866Z,7
2022-09-13T12:14:53.933Z,31
2022-09-13T12:17:34.946Z,21
2022-09-13T12:20:07.283Z,7
2022-09-13T12:22:40.705Z,8
2022-09-13T12:25:14.623Z,12
2022-09-13T12:27:47.743Z,11
2022-09-13T12:30:20.897Z,12
2022-09-13T12:33:07.753Z,8
2022-09-13T12:35:39.505Z,10
2022-09-13T12:38:12.835Z,12
2022-09-13T12:40:45.782Z,11
2022-09-13T12:43:17.147Z,9
2022-09-13T12:45:49.756Z,8
2022-09-13T12:48:23.864Z,12
2022-09-13T12:50:57.145Z,8
2022-09-13T12:53:29.548Z,17
2022-09-13T12:56:02.191Z,16
2022-09-13T12:58:35.152Z,12
2022-09-13T13:01:08.013Z,7
2022-09-13T13:03:41.173Z,8
2022-09-13T13:06:12.513Z,12
2022-09-13T13:08:45.034Z,15
2022-09-13T13:11:17.476Z,9
2022-09-13T13:13:49.957Z,9
2022-09-13T13:16:21.956Z,8
2022-09-13T13:18:54.584Z,8
2022-09-13T13:21:27.433Z,8
2022-09-13T13:23:59.329Z,12
2022-09-13T13:26:32.083Z,8
2022-09-13T13:29:04.627Z,8
2022-09-13T13:31:37.383Z,8
2022-09-13T13:34:09.893Z,9
2022-09-13T13:36:42.043Z,5
2022-09-13T13:39:14.397Z,7
2022-09-13T13:41:48.144Z,9
2022-09-13T13:44:21.070Z,5
2022-09-13T13:46:54.918Z,9
2022-09-13T13:49:27.641Z,8
2022-09-13T13:52:01.032Z,8
2022-09-13T13:54:33.706Z,7
2022-09-13T13:57:11.838Z,8
2022-09-13T13:59:42.943Z,11
2022-09-13T14:02:15.868Z,8
2022-09-13T14:04:49.906Z,7
2022-09-13T14:07:22.324Z,8
2022-09-13T14:09:56.614Z,8
2022-09-13T14:12:30.235Z,9
2022-09-13T14:15:07.176Z,8
2022-09-13T14:17:39.252Z,11
2022-09-13T14:20:11.474Z,8
2022-09-13T14:22:44.194Z,12
2022-09-13T14:25:16.303Z,19
2022-09-13T14:27:49.099Z,64
2022-09-13T14:30:24.096Z,36
2022-09-13T14:32:56.786Z,16
2022-09-13T14:35:28.961Z,20
2022-09-13T14:38:01.720Z,17
2022-09-13T14:40:34.137Z,17
2022-09-13T14:43:06.727Z,17
2022-09-13T14:45:39.693Z,47
2022-09-13T14:48:12.477Z,44
2022-09-13T14:50:45.929Z,11
2022-09-13T14:53:19.675Z,28
2022-09-13T14:55:53.643Z,27
2022-09-13T14:58:26.200Z,22
2022-09-13T15:01:00.541Z,12
2022-09-13T15:03:32.689Z,11
2022-09-13T15:06:05.365Z,8
2022-09-13T15:08:38.164Z,12
2022-09-13T15:11:10.974Z,15
2022-09-13T15:13:43.559Z,12
2022-09-13T15:16:16.620Z,9
2022-09-13T15:18:49.033Z,11
2022-09-13T15:21:21.862Z,26
2022-09-13T15:23:55.955Z,14
2022-09-13T15:26:28.973Z,12
2022-09-13T15:29:01.599Z,9
2022-09-13T15:31:34.488Z,8
2022-09-13T15:34:07.524Z,12
2022-09-13T15:36:42.343Z,16
2022-09-13T15:39:15.137Z,7
2022-09-13T15:41:47.846Z,11
2022-09-13T15:44:20.907Z,11
2022-09-13T15:46:54.346Z,50
2022-09-13T15:49:27.123Z,51
2022-09-13T15:52:00.096Z,24
2022-09-13T15:54:32.676Z,38
2022-09-13T15:57:05.800Z,78
2022-09-13T15:59:38.702Z,170
2022-09-13T16:02:11.781Z,73
2022-09-13T16:04:47.176Z,42
2022-09-13T16:07:18.388Z,25
2022-09-13T16:09:51.198Z,15
2022-09-13T16:12:23.596Z,16
2022-09-13T16:14:56.129Z,19
2022-09-13T16:17:30.019Z,16
2022-09-13T16:20:02.687Z,10
2022-09-13T16:22:35.749Z,11
2022-09-13T16:25:08.042Z,20
2022-09-13T16:27:40.551Z,12
2022-09-13T16:30:13.111Z,12
2022-09-13T16:32:46.684Z,13
2022-09-13T16:35:20.268Z,17
2022-09-13T16:38:01.821Z,12
2022-09-13T16:40:34.723Z,16
2022-09-13T16:43:06.906Z,19
2022-09-13T16:45:39.404Z,19
2022-09-13T16:48:12.155Z,17
2022-09-13T16:50:45.801Z,18
2022-09-13T16:53:18.441Z,12
2022-09-13T16:55:51.037Z,15
2022-09-13T16:58:23.790Z,15
2022-09-13T17:00:56.346Z,16
2022-09-13T17:03:28.654Z,21
2022-09-13T17:06:01.193Z,25
2022-09-13T17:08:33.726Z,20
2022-09-13T17:11:06.684Z,25
2022-09-13T17:13:38.978Z,21
2022-09-13T17:16:13.277Z,23
2022-09-13T17:18:46.517Z,23
2022-09-13T17:21:19.317Z,20
2022-09-13T17:23:52.022Z,17
2022-09-13T17:26:24.343Z,23
2022-09-13T17:28:58.443Z,28
2022-09-13T17:31:31.551Z,24
2022-09-13T17:34:03.610Z,27
2022-09-13T17:36:36.074Z,29
2022-09-13T17:39:08.636Z,20
2022-09-13T17:41:40.557Z,33
2022-09-13T17:44:12.786Z,39
2022-09-13T17:46:45.663Z,32
2022-09-13T17:49:19.114Z,27
2022-09-13T17:51:51.387Z,20
2022-09-13T17:54:23.802Z,27
2022-09-13T17:57:01.314Z,28
2022-09-13T17:59:33.202Z,29
2022-09-13T18:02:05.600Z,64
2022-09-13T18:04:37.609Z,59
2022-09-13T18:07:14.214Z,61
2022-09-13T18:09:51.229Z,43
2022-09-13T18:12:22.815Z,44
2022-09-13T18:14:55.541Z,37
2022-09-13T18:17:32.036Z,24
2022-09-13T18:20:05.189Z,28
2022-09-13T18:22:37.842Z,28
2022-09-13T18:25:08.975Z,28
2022-09-13T18:27:41.781Z,26
2022-09-13T18:30:13.824Z,33
2022-09-13T18:32:46.467Z,33
2022-09-13T18:35:19.651Z,36
2022-09-13T18:37:59.076Z,36
2022-09-13T18:40:31.798Z,31
2022-09-13T18:43:04.426Z,33
2022-09-13T18:45:35.829Z,27
2022-09-13T18:48:08.358Z,23
2022-09-13T18:50:44.659Z,28
2022-09-13T18:53:35.394Z,28
2022-09-13T18:56:06.434Z,28
2022-09-13T18:58:38.888Z,24
2022-09-13T19:01:13.927Z,24
2022-09-13T19:03:46.562Z,27
2022-09-13T19:06:19.886Z,26
2022-09-13T19:08:54.202Z,24
2022-09-13T19:11:50.187Z,24
2022-09-13T19:14:20.422Z,24
2022-09-13T19:16:53.227Z,28
2022-09-13T19:19:26.082Z,21
2022-09-13T19:21:58.692Z,24
2022-09-13T19:24:30.974Z,28
2022-09-13T19:27:02.101Z,22
2022-09-13T19:29:34.647Z,24
2022-09-13T19:32:07.737Z,29
2022-09-13T19:34:41.116Z,25
2022-09-13T19:37:14.746Z,25
2022-09-13T19:39:45.666Z,27
2022-09-13T19:42:18.360Z,28
2022-09-13T19:44:49.469Z,24
2022-09-13T19:48:38.951Z,36
2022-09-13T19:51:11.071Z,26
2022-09-13T19:54:00.401Z,38
2022-09-13T19:56:31.398Z,40
2022-09-13T19:59:03.801Z,27
2022-09-13T20:01:36.688Z,39
2022-09-13T20:04:09.845Z,39
2022-09-13T20:06:43.033Z,35
2022-09-13T20:09:15.879Z,35
2022-09-13T20:11:50.460Z,40
2022-09-13T20:14:24.276Z,32
2022-09-13T20:17:00.254Z,28
2022-09-13T20:19:50.962Z,42
2022-09-13T20:22:22.315Z,41
2022-09-13T20:24:54.788Z,36
2022-09-13T20:27:40.236Z,31
2022-09-13T20:30:15.515Z,44
2022-09-13T20:32:47.828Z,32
2022-09-13T20:35:20.295Z,32
2022-09-13T20:37:55.507Z,26
2022-09-13T20:40:28.955Z,32
2022-09-13T20:43:02.877Z,35
2022-09-13T20:45:36.291Z,25
2022-09-13T20:48:07.429Z,25
2022-09-13T20:50:42.566Z,26
2022-09-13T20:53:15.050Z,33
2022-09-13T20:55:49.966Z,31
2022-09-13T20:58:23.748Z,31
2022-09-13T21:00:58.790Z,24
2022-09-13T21:03:29.287Z,28
2022-09-13T21:06:01.441Z,25
2022-09-13T21:08:33.724Z,24
2022-09-13T21:11:05.618Z,24
2022-09-13T21:13:38.976Z,30
2022-09-13T21:16:13.190Z,30
2022-09-13T21:18:45.321Z,28
2022-09-13T21:21:18.616Z,28
2022-09-13T21:23:53.857Z,27
2022-09-13T21:26:26.518Z,24
2022-09-13T21:28:58.872Z,24
2022-09-13T21:31:31.947Z,25
2022-09-13T21:34:04.565Z,32
2022-09-13T21:36:37.047Z,28
2022-09-13T21:39:10.776Z,21
2022-09-13T21:41:43.203Z,29
2022-09-13T21:44:15.974Z,31
2022-09-13T21:46:51.456Z,24
2022-09-13T21:49:26.943Z,29
2022-09-13T21:51:59.259Z,25
2022-09-13T21:54:31.977Z,28
2022-09-13T21:57:06.360Z,24
2022-09-13T21:59:39.349Z,28
2022-09-13T22:02:11.929Z,31
2022-09-13T22:04:44.684Z,29
2022-09-13T22:07:17.230Z,28
2022-09-13T22:09:49.552Z,24
2022-09-13T22:12:22.083Z,21
2022-09-13T22:14:55.720Z,28
2022-09-13T22:17:31.147Z,30
2022-09-13T22:20:03.689Z,28
2022-09-13T22:22:34.685Z,29
2022-09-13T22:25:06.945Z,29
2022-09-13T22:27:43.209Z,28
2022-09-13T22:30:16.616Z,24
2022-09-13T22:32:49.084Z,21
2022-09-13T22:35:21.781Z,31
2022-09-13T22:37:55.217Z,20
2022-09-13T22:40:27.832Z,25
2022-09-13T22:43:01.054Z,31
2022-09-13T22:45:35.073Z,20
2022-09-13T22:48:13.280Z,23
2022-09-13T22:50:44.310Z,21
2022-09-13T22:53:16.828Z,23
2022-09-13T22:55:50.189Z,22
2022-09-13T22:58:22.906Z,25
2022-09-13T23:00:55.442Z,24
2022-09-13T23:03:29.119Z,22
2022-09-13T23:06:01.231Z,20
2022-09-13T23:08:33.640Z,24
2022-09-13T23:11:05.969Z,32
2022-09-13T23:13:38.609Z,25
2022-09-13T23:16:13.459Z,20
2022-09-13T23:18:45.597Z,23
2022-09-13T23:21:18.249Z,24
2022-09-13T23:23:50.601Z,24
2022-09-13T23:26:22.973Z,21
2022-09-13T23:28:55.503Z,20
2022-09-13T23:31:28.940Z,23
2022-09-13T23:34:01.471Z,25
2022-09-13T23:36:37.565Z,20
2022-09-13T23:39:08.586Z,21
2022-09-13T23:41:40.931Z,23
2022-09-13T23:44:19.065Z,21
2022-09-13T23:46:51.426Z,25
2022-09-13T23:49:23.609Z,23
2022-09-13T23:51:55.800Z,20
2022-09-13T23:54:27.865Z,21
2022-09-13T23:57:00.399Z,28
2022-09-13T23:59:32.506Z,20
